createdAt,value
2023-03-27T00:00:20.654Z,4.80
2023-03-27T00:01:20.720Z,4.78
2023-03-27T00:02:20.676Z,4.78
2023-03-27T00:03:20.672Z,4.77
2023-03-27T00:04:20.558Z,4.67
2023-03-27T00:05:20.491Z,4.77
2023-03-27T00:06:20.526Z,4.84
2023-03-27T00:07:20.410Z,4.73
2023-03-27T00:08:20.370Z,4.73
2023-03-27T00:09:20.354Z,4.68
2023-03-27T00:10:20.303Z,4.60
2023-03-27T00:11:20.270Z,4.59
2023-03-27T00:12:20.271Z,4.62
2023-03-27T00:13:20.187Z,4.58
2023-03-27T00:14:20.153Z,4.58
2023-03-27T00:15:20.107Z,4.66
2023-03-27T00:16:20.237Z,4.66
2023-03-27T00:17:20.045Z,4.58
2023-03-27T00:18:20.056Z,4.55
2023-03-27T00:19:19.999Z,4.58
2023-03-27T00:20:19.929Z,4.50
2023-03-27T00:21:19.890Z,4.58
2023-03-27T00:22:19.858Z,4.42
2023-03-27T00:23:19.805Z,4.49
2023-03-27T00:24:19.837Z,4.41
2023-03-27T00:25:19.734Z,4.55
2023-03-27T00:26:19.701Z,4.52
2023-03-27T00:27:19.664Z,4.38
2023-03-27T00:28:19.644Z,4.44
2023-03-27T00:29:19.610Z,4.42
2023-03-27T00:30:19.632Z,4.42
2023-03-27T00:31:19.566Z,4.40
2023-03-27T00:32:19.482Z,4.42
2023-03-27T00:33:19.451Z,4.38
2023-03-27T00:34:19.413Z,4.35
2023-03-27T00:35:19.414Z,4.40
2023-03-27T00:36:19.387Z,4.44
2023-03-27T00:37:19.304Z,4.40
2023-03-27T00:38:19.266Z,4.40
2023-03-27T00:39:19.260Z,4.44
2023-03-27T00:40:19.182Z,4.32
2023-03-27T00:41:19.163Z,4.34
2023-03-27T00:42:19.191Z,4.37
2023-03-27T00:43:19.099Z,4.34
2023-03-27T00:44:19.065Z,4.34
2023-03-27T00:45:19.009Z,4.28
2023-03-27T00:46:19.015Z,4.34
2023-03-27T00:47:18.945Z,4.24
2023-03-27T00:48:18.997Z,4.22
2023-03-27T00:49:18.963Z,4.31
2023-03-27T00:50:18.814Z,4.24
2023-03-27T00:51:18.792Z,4.35
2023-03-27T00:52:18.732Z,4.40
2023-03-27T00:53:18.706Z,4.24
2023-03-27T00:54:18.721Z,4.26
2023-03-27T00:55:18.619Z,4.35
2023-03-27T00:56:18.594Z,4.24
2023-03-27T00:57:18.562Z,4.22
2023-03-27T00:58:18.528Z,4.28
2023-03-27T00:59:18.549Z,4.30
2023-03-27T01:00:18.459Z,4.16
2023-03-27T01:01:18.493Z,4.26
2023-03-27T01:02:18.406Z,4.19
2023-03-27T01:03:18.402Z,4.16
2023-03-27T01:04:18.281Z,4.14
2023-03-27T01:05:18.336Z,4.22
2023-03-27T01:06:18.227Z,4.17
2023-03-27T01:07:18.203Z,4.17
2023-03-27T01:08:18.143Z,4.19
2023-03-27T01:09:20.714Z,4.14
2023-03-27T01:10:18.062Z,4.14
2023-03-27T01:11:18.099Z,4.19
2023-03-27T01:12:18.010Z,4.19
2023-03-27T01:13:17.960Z,4.13
2023-03-27T01:14:17.927Z,4.13
2023-03-27T01:15:17.897Z,4.13
2023-03-27T01:16:17.908Z,4.19
2023-03-27T01:17:17.909Z,4.14
2023-03-27T01:18:17.766Z,4.20
2023-03-27T01:19:17.728Z,4.08
2023-03-27T01:20:17.693Z,4.14
2023-03-27T01:21:17.664Z,4.05
2023-03-27T01:22:17.622Z,4.06
2023-03-27T01:23:35.770Z,4.14
2023-03-27T01:24:17.550Z,4.10
2023-03-27T01:25:17.509Z,4.10
2023-03-27T01:26:17.459Z,4.05
2023-03-27T01:27:17.434Z,4.10
2023-03-27T01:28:17.410Z,4.14
2023-03-27T01:29:17.411Z,4.17
2023-03-27T01:30:17.315Z,4.17
2023-03-27T01:31:17.298Z,4.19
2023-03-27T01:32:17.239Z,4.20
2023-03-27T01:33:17.228Z,4.23
2023-03-27T01:34:17.192Z,4.19
2023-03-27T01:35:17.211Z,4.24
2023-03-27T01:36:17.084Z,4.19
2023-03-27T01:37:17.307Z,4.10
2023-03-27T01:38:17.086Z,4.20
2023-03-27T01:39:16.982Z,4.14
2023-03-27T01:40:16.953Z,4.10
2023-03-27T01:41:16.896Z,4.06
2023-03-27T01:42:16.885Z,4.06
2023-03-27T01:43:16.916Z,4.06
2023-03-27T01:44:16.802Z,4.08
2023-03-27T01:45:16.757Z,3.99
2023-03-27T01:46:16.753Z,3.99
2023-03-27T01:47:16.681Z,4.04
2023-03-27T01:48:16.646Z,4.05
2023-03-27T01:49:16.660Z,4.06
2023-03-27T01:50:16.571Z,4.13
2023-03-27T01:51:16.543Z,4.06
2023-03-27T01:52:16.496Z,4.17
2023-03-27T01:53:16.450Z,4.05
2023-03-27T01:54:16.486Z,4.19
2023-03-27T01:55:16.380Z,4.24
2023-03-27T01:56:16.354Z,4.20
2023-03-27T01:57:16.374Z,4.20
2023-03-27T01:58:16.269Z,4.22
2023-03-27T01:59:16.251Z,4.30
2023-03-27T02:00:18.709Z,4.19
2023-03-27T02:01:16.221Z,4.23
2023-03-27T02:02:16.132Z,4.28
2023-03-27T02:03:16.078Z,4.23
2023-03-27T02:04:16.214Z,4.30
2023-03-27T02:05:16.053Z,4.26
2023-03-27T02:06:16.054Z,4.32
2023-03-27T02:07:15.935Z,4.26
2023-03-27T02:08:15.900Z,4.22
2023-03-27T02:09:15.922Z,4.38
2023-03-27T02:10:15.838Z,4.35
2023-03-27T02:11:15.802Z,4.26
2023-03-27T02:12:15.740Z,4.30
2023-03-27T02:13:15.731Z,4.30
2023-03-27T02:14:15.745Z,4.34
2023-03-27T02:15:23.795Z,4.37
2023-03-27T02:16:15.594Z,4.28
2023-03-27T02:17:15.579Z,4.37
2023-03-27T02:18:15.532Z,4.28
2023-03-27T02:19:15.483Z,4.30
2023-03-27T02:20:15.512Z,4.30
2023-03-27T02:21:15.416Z,4.23
2023-03-27T02:22:15.383Z,4.23
2023-03-27T02:23:15.357Z,4.16
2023-03-27T02:24:15.297Z,4.14
2023-03-27T02:25:15.270Z,4.22
2023-03-27T02:26:15.287Z,4.20
2023-03-27T02:27:15.211Z,4.20
2023-03-27T02:28:15.156Z,4.13
2023-03-27T02:29:15.112Z,4.16
2023-03-27T02:30:15.072Z,4.20
2023-03-27T02:31:34.007Z,4.17
2023-03-27T02:32:15.111Z,4.23
2023-03-27T02:33:15.059Z,4.19
2023-03-27T02:34:14.933Z,4.14
2023-03-27T02:35:14.894Z,4.19
2023-03-27T02:36:14.851Z,4.20
2023-03-27T02:37:14.816Z,4.19
2023-03-27T02:38:14.847Z,4.31
2023-03-27T02:39:14.753Z,4.22
2023-03-27T02:40:14.730Z,4.24
2023-03-27T02:41:14.709Z,4.19
2023-03-27T02:42:14.696Z,4.22
2023-03-27T02:43:14.606Z,4.17
2023-03-27T02:44:14.611Z,4.20
2023-03-27T02:45:14.515Z,4.17
2023-03-27T02:46:14.499Z,4.19
2023-03-27T02:47:14.448Z,4.13
2023-03-27T02:48:14.404Z,4.08
2023-03-27T02:49:14.397Z,4.06
2023-03-27T02:50:14.395Z,4.08
2023-03-27T02:51:14.307Z,4.08
2023-03-27T02:52:14.264Z,4.05
2023-03-27T02:53:14.217Z,4.19
2023-03-27T02:54:14.194Z,4.12
2023-03-27T02:55:14.153Z,4.16
2023-03-27T02:56:14.210Z,4.13
2023-03-27T02:57:14.120Z,4.08
2023-03-27T02:58:14.036Z,4.13
2023-03-27T02:59:14.000Z,4.14
2023-03-27T03:00:14.001Z,4.16
2023-03-27T03:01:13.985Z,4.01
2023-03-27T03:02:13.965Z,4.08
2023-03-27T03:03:13.985Z,4.13
2023-03-27T03:04:13.818Z,4.14
2023-03-27T03:05:13.788Z,4.13
2023-03-27T03:06:13.738Z,4.14
2023-03-27T03:07:13.710Z,4.10
2023-03-27T03:08:13.750Z,4.04
2023-03-27T03:09:13.625Z,4.12
2023-03-27T03:10:13.598Z,4.16
2023-03-27T03:11:13.561Z,4.12
2023-03-27T03:12:13.526Z,4.20
2023-03-27T03:13:13.488Z,4.14
2023-03-27T03:14:13.511Z,4.04
2023-03-27T03:15:13.416Z,4.10
2023-03-27T03:16:13.382Z,4.02
2023-03-27T03:17:13.330Z,3.94
2023-03-27T03:18:13.305Z,3.81
2023-03-27T03:19:13.253Z,3.83
2023-03-27T03:20:13.696Z,3.80
2023-03-27T03:21:13.182Z,3.60
2023-03-27T03:22:13.218Z,3.59
2023-03-27T03:23:13.105Z,3.60
2023-03-27T03:24:13.064Z,3.56
2023-03-27T03:25:13.025Z,3.47
2023-03-27T03:26:13.061Z,3.44
2023-03-27T03:27:12.972Z,3.48
2023-03-27T03:28:12.922Z,3.40
2023-03-27T03:29:13.052Z,3.36
2023-03-27T03:30:17.621Z,3.25
2023-03-27T03:31:12.824Z,3.47
2023-03-27T03:32:12.842Z,3.16
2023-03-27T03:33:12.793Z,3.28
2023-03-27T03:34:12.686Z,3.16
2023-03-27T03:35:12.668Z,3.10
2023-03-27T03:36:12.620Z,3.13
2023-03-27T03:37:12.581Z,3.04
2023-03-27T03:38:12.616Z,3.13
2023-03-27T03:39:12.596Z,3.04
2023-03-27T03:40:12.531Z,3.01
2023-03-27T03:41:12.436Z,3.05
2023-03-27T03:42:22.638Z,2.95
2023-03-27T03:43:12.357Z,2.97
2023-03-27T03:44:12.316Z,2.97
2023-03-27T03:45:12.280Z,2.97
2023-03-27T03:46:13.059Z,2.93
2023-03-27T03:47:12.203Z,2.82
2023-03-27T03:48:12.171Z,2.85
2023-03-27T03:49:12.124Z,2.82
2023-03-27T03:50:12.097Z,2.75
2023-03-27T03:51:12.051Z,2.71
2023-03-27T03:52:12.091Z,2.79
2023-03-27T03:53:11.972Z,2.77
2023-03-27T03:54:11.935Z,2.64
2023-03-27T03:55:11.967Z,2.72
2023-03-27T03:56:11.860Z,2.62
2023-03-27T03:57:11.845Z,2.68
2023-03-27T03:58:11.840Z,2.65
2023-03-27T03:59:11.764Z,2.65
2023-03-27T04:00:11.722Z,2.69
2023-03-27T04:01:17.596Z,2.61
2023-03-27T04:02:11.660Z,2.53
2023-03-27T04:03:11.681Z,2.54
2023-03-27T04:04:11.608Z,2.50
2023-03-27T04:05:11.522Z,2.47
2023-03-27T04:06:11.475Z,2.39
2023-03-27T04:07:11.435Z,2.49
2023-03-27T04:08:11.396Z,2.47
2023-03-27T04:09:11.362Z,2.50
2023-03-27T04:10:11.389Z,2.46
2023-03-27T04:11:11.282Z,2.43
2023-03-27T04:12:11.250Z,2.35
2023-03-27T04:13:11.288Z,2.33
2023-03-27T04:14:11.175Z,2.35
2023-03-27T04:15:11.135Z,2.35
2023-03-27T04:16:11.128Z,2.26
2023-03-27T04:17:11.061Z,2.31
2023-03-27T04:18:11.232Z,2.25
2023-03-27T04:19:11.056Z,2.28
2023-03-27T04:20:10.954Z,2.29
2023-03-27T04:21:10.915Z,2.18
2023-03-27T04:22:10.890Z,2.20
2023-03-27T04:23:10.817Z,2.24
2023-03-27T04:24:10.788Z,2.29
2023-03-27T04:25:10.808Z,2.24
2023-03-27T04:26:10.745Z,2.26
2023-03-27T04:27:10.678Z,2.24
2023-03-27T04:28:10.627Z,2.18
2023-03-27T04:29:10.602Z,2.24
2023-03-27T04:30:10.586Z,2.11
2023-03-27T04:31:10.702Z,2.14
2023-03-27T04:32:10.489Z,2.00
2023-03-27T04:33:10.438Z,2.04
2023-03-27T04:34:10.402Z,2.07
2023-03-27T04:35:10.458Z,2.00
2023-03-27T04:36:10.348Z,2.07
2023-03-27T04:37:10.406Z,2.10
2023-03-27T04:38:10.260Z,2.02
2023-03-27T04:39:10.219Z,2.08
2023-03-27T04:40:10.185Z,2.02
2023-03-27T04:41:10.202Z,2.10
2023-03-27T04:42:10.113Z,2.04
2023-03-27T04:43:10.070Z,2.04
2023-03-27T04:44:10.020Z,1.91
2023-03-27T04:45:09.999Z,1.91
2023-03-27T04:46:09.979Z,1.85
2023-03-27T04:47:10.032Z,1.78
2023-03-27T04:48:09.922Z,1.71
2023-03-27T04:49:09.830Z,1.80
2023-03-27T04:50:09.803Z,1.68
2023-03-27T04:51:09.754Z,1.84
2023-03-27T04:52:09.776Z,1.67
2023-03-27T04:53:09.682Z,1.81
2023-03-27T04:54:09.658Z,1.71
2023-03-27T04:55:09.600Z,1.71
2023-03-27T04:56:09.581Z,1.73
2023-03-27T04:57:09.544Z,1.70
2023-03-27T04:58:09.564Z,1.68
2023-03-27T04:59:09.456Z,1.73
2023-03-27T05:00:09.410Z,1.76
2023-03-27T05:01:09.407Z,1.80
2023-03-27T05:02:09.343Z,1.71
2023-03-27T05:03:09.403Z,1.68
2023-03-27T05:04:09.336Z,1.68
2023-03-27T05:05:09.230Z,1.59
2023-03-27T05:06:09.177Z,1.55
2023-03-27T05:07:09.149Z,1.56
2023-03-27T05:08:09.297Z,1.53
2023-03-27T05:09:09.086Z,1.48
2023-03-27T05:10:09.115Z,1.45
2023-03-27T05:11:08.993Z,1.41
2023-03-27T05:12:08.960Z,1.45
2023-03-27T05:13:08.917Z,1.41
2023-03-27T05:14:08.872Z,1.53
2023-03-27T05:15:08.839Z,1.55
2023-03-27T05:16:08.895Z,1.49
2023-03-27T05:17:08.760Z,1.62
2023-03-27T05:18:08.858Z,1.56
2023-03-27T05:19:08.687Z,1.62
2023-03-27T05:20:08.766Z,1.55
2023-03-27T05:21:08.693Z,1.60
2023-03-27T05:22:08.745Z,1.50
2023-03-27T05:23:08.573Z,1.52
2023-03-27T05:24:08.576Z,1.52
2023-03-27T05:25:08.545Z,1.58
2023-03-27T05:26:08.526Z,1.60
2023-03-27T05:27:08.477Z,1.63
2023-03-27T05:28:08.534Z,1.77
2023-03-27T05:29:08.386Z,1.67
2023-03-27T05:30:08.269Z,1.70
2023-03-27T05:31:08.292Z,1.70
2023-03-27T05:32:08.263Z,1.67
2023-03-27T05:33:08.255Z,1.70
2023-03-27T05:34:08.307Z,1.71
2023-03-27T05:35:08.160Z,1.71
2023-03-27T05:36:08.080Z,1.80
2023-03-27T05:37:08.091Z,1.74
2023-03-27T05:38:08.030Z,1.71
2023-03-27T05:39:07.993Z,1.77
2023-03-27T05:40:08.036Z,1.76
2023-03-27T05:41:07.913Z,1.80
2023-03-27T05:42:07.872Z,1.85
2023-03-27T05:43:07.853Z,1.87
2023-03-27T05:44:07.739Z,1.89
2023-03-27T05:45:07.782Z,1.91
2023-03-27T05:46:07.908Z,2.00
2023-03-27T05:47:07.689Z,2.07
2023-03-27T05:48:07.768Z,2.07
2023-03-27T05:49:07.601Z,2.10
2023-03-27T05:50:07.570Z,2.15
2023-03-27T05:51:07.537Z,2.10
2023-03-27T05:52:07.576Z,2.24
2023-03-27T05:53:07.448Z,2.24
2023-03-27T05:54:07.422Z,2.14
2023-03-27T05:55:07.385Z,2.15
2023-03-27T05:56:07.264Z,2.18
2023-03-27T05:57:07.380Z,2.22
2023-03-27T05:58:07.287Z,2.14
2023-03-27T05:59:07.243Z,2.24
2023-03-27T06:00:07.178Z,2.17
2023-03-27T06:01:07.153Z,2.26
2023-03-27T06:02:07.065Z,2.26
2023-03-27T06:03:07.248Z,2.25
2023-03-27T06:04:07.133Z,2.26
2023-03-27T06:05:06.944Z,2.31
2023-03-27T06:06:06.935Z,2.35
2023-03-27T06:07:06.923Z,2.39
2023-03-27T06:08:06.874Z,2.62
2023-03-27T06:09:06.799Z,2.64
2023-03-27T06:10:06.894Z,2.60
2023-03-27T06:11:06.729Z,2.72
2023-03-27T06:12:06.705Z,2.64
2023-03-27T06:13:06.636Z,2.74
2023-03-27T06:14:06.658Z,2.64
2023-03-27T06:15:06.643Z,2.72
2023-03-27T06:16:06.606Z,2.82
2023-03-27T06:17:06.481Z,2.80
2023-03-27T06:18:06.543Z,2.87
2023-03-27T06:19:06.485Z,2.92
2023-03-27T06:20:06.414Z,2.82
2023-03-27T06:21:06.434Z,2.89
2023-03-27T06:22:06.292Z,2.92
2023-03-27T06:23:06.346Z,2.86
2023-03-27T06:24:06.246Z,2.83
2023-03-27T06:25:06.229Z,2.89
2023-03-27T06:26:06.138Z,2.85
2023-03-27T06:27:06.164Z,2.89
2023-03-27T06:28:06.131Z,2.97
2023-03-27T06:29:08.423Z,2.85
2023-03-27T06:30:06.073Z,2.82
2023-03-27T06:31:06.032Z,2.90
2023-03-27T06:32:05.980Z,2.89
2023-03-27T06:33:06.060Z,2.97
2023-03-27T06:34:05.901Z,2.93
2023-03-27T06:35:05.841Z,2.98
2023-03-27T06:36:05.806Z,3.01
2023-03-27T06:37:05.804Z,3.01
2023-03-27T06:38:05.753Z,3.16
2023-03-27T06:39:05.777Z,3.14
2023-03-27T06:40:05.710Z,3.14
2023-03-27T06:41:05.677Z,3.10
2023-03-27T06:42:05.611Z,3.05
2023-03-27T06:43:05.512Z,3.18
2023-03-27T06:44:05.564Z,3.26
2023-03-27T06:45:05.690Z,3.42
2023-03-27T06:46:05.491Z,3.32
2023-03-27T06:47:05.478Z,3.37
2023-03-27T06:48:16.860Z,3.44
2023-03-27T06:49:05.369Z,3.36
2023-03-27T06:50:05.306Z,3.50
2023-03-27T06:51:05.410Z,3.59
2023-03-27T06:52:05.190Z,3.60
2023-03-27T06:53:10.056Z,3.60
2023-03-27T06:54:05.227Z,3.78
2023-03-27T06:55:05.147Z,4.01
2023-03-27T06:56:05.019Z,4.05
2023-03-27T06:57:05.132Z,4.13
2023-03-27T06:58:04.990Z,4.14
2023-03-27T06:59:04.964Z,4.19
2023-03-27T07:00:04.941Z,4.19
2023-03-27T07:01:04.920Z,4.23
2023-03-27T07:02:04.882Z,4.19
2023-03-27T07:03:04.988Z,4.45
2023-03-27T07:04:04.793Z,4.49
2023-03-27T07:05:05.609Z,4.63
2023-03-27T07:06:04.761Z,4.62
2023-03-27T07:07:04.671Z,4.84
2023-03-27T07:08:18.661Z,4.89
2023-03-27T07:09:04.725Z,4.74
2023-03-27T07:10:04.484Z,4.78
2023-03-27T07:12:04.647Z,4.92
2023-03-27T07:13:04.474Z,4.89
2023-03-27T07:14:04.357Z,4.89
2023-03-27T07:15:04.468Z,4.94
2023-03-27T07:16:04.288Z,5.10
2023-03-27T07:17:04.231Z,5.11
2023-03-27T07:18:04.277Z,5.05
2023-03-27T07:19:04.257Z,4.90
2023-03-27T07:20:04.196Z,4.80
2023-03-27T07:21:04.137Z,4.71
2023-03-27T07:22:04.107Z,4.55
2023-03-27T07:23:04.230Z,4.59
2023-03-27T07:24:04.053Z,4.55
2023-03-27T07:25:04.014Z,4.41
2023-03-27T07:26:03.960Z,4.49
2023-03-27T07:27:03.882Z,4.42
2023-03-27T07:28:06.286Z,4.45
2023-03-27T07:29:03.926Z,4.50
2023-03-27T07:30:03.809Z,4.52
2023-03-27T07:31:04.015Z,4.41
2023-03-27T07:32:07.197Z,4.44
2023-03-27T07:33:03.740Z,4.50
2023-03-27T07:34:03.740Z,4.52
2023-03-27T07:35:03.638Z,4.56
2023-03-27T07:36:03.617Z,4.75
2023-03-27T07:37:03.563Z,4.73
2023-03-27T07:38:03.524Z,4.74
2023-03-27T07:39:03.515Z,4.87
2023-03-27T07:40:03.456Z,4.92
2023-03-27T07:41:03.403Z,5.00
2023-03-27T07:42:03.480Z,5.07
2023-03-27T07:43:03.353Z,5.17
2023-03-27T07:44:03.290Z,5.35
2023-03-27T07:45:04.529Z,5.66
2023-03-27T07:46:03.339Z,5.90
2023-03-27T07:47:03.301Z,6.07
2023-03-27T07:48:03.195Z,6.17
2023-03-27T07:49:03.139Z,6.09
2023-03-27T07:50:03.111Z,6.14
2023-03-27T07:51:13.330Z,6.14
2023-03-27T07:52:02.989Z,5.98
2023-03-27T07:53:02.995Z,5.72
2023-03-27T07:54:03.042Z,5.48
2023-03-27T07:55:02.919Z,5.46
2023-03-27T07:56:02.859Z,5.38
2023-03-27T07:57:02.892Z,5.36
2023-03-27T07:58:03.676Z,5.38
2023-03-27T07:59:02.872Z,5.23
2023-03-27T08:00:02.851Z,5.36
2023-03-27T08:01:02.936Z,5.17
2023-03-27T08:02:02.653Z,5.05
2023-03-27T08:03:02.674Z,4.97
2023-03-27T08:04:02.672Z,4.94
2023-03-27T08:05:02.837Z,5.05
2023-03-27T08:06:02.607Z,5.17
2023-03-27T08:07:02.484Z,5.48
2023-03-27T08:08:02.447Z,5.46
2023-03-27T08:09:03.055Z,5.53
2023-03-27T08:10:02.328Z,5.53
2023-03-27T08:11:02.275Z,5.69
2023-03-27T08:12:02.434Z,5.90
2023-03-27T08:13:02.272Z,5.82
2023-03-27T08:14:02.250Z,5.90
2023-03-27T08:15:02.223Z,5.86
2023-03-27T08:16:02.084Z,5.86
2023-03-27T08:17:14.687Z,5.89
2023-03-27T08:18:02.098Z,5.99
2023-03-27T08:19:01.972Z,5.98
2023-03-27T08:20:02.052Z,6.12
2023-03-27T08:21:01.944Z,6.02
2023-03-27T08:22:01.864Z,6.01
2023-03-27T08:23:01.924Z,5.86
2023-03-27T08:24:01.991Z,5.82
2023-03-27T08:25:01.927Z,5.82
2023-03-27T08:26:01.827Z,5.76
2023-03-27T08:27:01.748Z,5.64
2023-03-27T08:28:01.696Z,5.62
2023-03-27T08:29:01.712Z,5.64
2023-03-27T08:30:01.772Z,5.39
2023-03-27T08:31:02.531Z,5.30
2023-03-27T08:32:01.587Z,5.43
2023-03-27T08:33:01.616Z,5.61
2023-03-27T08:34:01.481Z,5.80
2023-03-27T08:35:01.504Z,6.02
2023-03-27T08:36:01.577Z,6.17
2023-03-27T08:37:01.337Z,6.31
2023-03-27T08:38:01.320Z,6.16
2023-03-27T08:39:01.254Z,6.09
2023-03-27T08:40:01.259Z,6.14
2023-03-27T08:41:01.177Z,6.09
2023-03-27T08:42:01.220Z,6.09
2023-03-27T08:43:01.112Z,6.20
2023-03-27T08:44:01.075Z,6.28
2023-03-27T08:45:01.034Z,6.28
2023-03-27T08:46:01.068Z,6.08
2023-03-27T08:47:00.968Z,5.90
2023-03-27T08:48:01.618Z,5.87
2023-03-27T08:49:00.899Z,5.82
2023-03-27T08:50:00.870Z,5.73
2023-03-27T08:51:00.821Z,5.94
2023-03-27T08:52:00.791Z,6.08
2023-03-27T08:53:00.754Z,6.27
2023-03-27T08:54:00.768Z,6.33
2023-03-27T08:55:00.714Z,6.38
2023-03-27T08:56:00.646Z,6.49
2023-03-27T08:57:00.653Z,6.56
2023-03-27T08:58:00.599Z,6.63
2023-03-27T08:59:00.598Z,6.54
2023-03-27T09:00:00.504Z,6.28
2023-03-27T09:01:00.470Z,6.27
2023-03-27T09:02:00.460Z,6.31
2023-03-27T09:03:00.462Z,6.33
2023-03-27T09:04:00.437Z,6.51
2023-03-27T09:05:00.380Z,6.28
2023-03-27T09:06:00.299Z,6.24
2023-03-27T09:07:00.253Z,6.22
2023-03-27T09:08:00.222Z,6.28
2023-03-27T09:09:00.182Z,6.38
2023-03-27T09:10:00.187Z,6.46
2023-03-27T09:11:00.342Z,6.24
2023-03-27T09:12:00.104Z,6.01
2023-03-27T09:13:00.109Z,6.04
2023-03-27T09:14:00.006Z,6.02
2023-03-27T09:14:59.974Z,6.27
2023-03-27T09:16:00.175Z,6.45
2023-03-27T09:16:59.958Z,6.39
2023-03-27T09:17:59.887Z,6.28
2023-03-27T09:18:59.865Z,6.20
2023-03-27T09:19:59.814Z,6.22
2023-03-27T09:20:59.755Z,6.26
2023-03-27T09:21:59.734Z,6.39
2023-03-27T09:22:59.734Z,6.64
2023-03-27T09:23:59.681Z,6.79
2023-03-27T09:24:59.770Z,6.84
2023-03-27T09:25:59.781Z,6.79
2023-03-27T09:27:07.038Z,6.85
2023-03-27T09:27:59.605Z,6.70
2023-03-27T09:28:59.477Z,6.63
2023-03-27T09:30:05.389Z,6.63
2023-03-27T09:30:59.441Z,6.77
2023-03-27T09:31:59.425Z,6.67
2023-03-27T09:32:59.432Z,6.59
2023-03-27T09:33:59.297Z,6.82
2023-03-27T09:34:59.267Z,6.92
2023-03-27T09:35:59.586Z,7.07
2023-03-27T09:36:59.199Z,6.93
2023-03-27T09:37:59.158Z,6.85
2023-03-27T09:38:59.166Z,6.85
2023-03-27T09:39:59.097Z,6.85
2023-03-27T09:40:59.093Z,6.59
2023-03-27T09:41:59.007Z,6.51
2023-03-27T09:42:58.981Z,6.46
2023-03-27T09:43:58.998Z,6.39
2023-03-27T09:44:58.910Z,6.44
2023-03-27T09:45:58.999Z,6.56
2023-03-27T09:46:58.885Z,6.81
2023-03-27T09:47:58.840Z,6.84
2023-03-27T09:48:58.787Z,6.81
2023-03-27T09:49:58.789Z,6.84
2023-03-27T09:50:58.904Z,6.93
2023-03-27T09:51:58.652Z,7.11
2023-03-27T09:52:58.716Z,7.21
2023-03-27T09:53:58.594Z,7.24
2023-03-27T09:54:58.556Z,7.28
2023-03-27T09:55:59.032Z,6.87
2023-03-27T09:56:58.525Z,6.93
2023-03-27T09:57:58.509Z,7.07
2023-03-27T09:58:58.434Z,7.14
2023-03-27T09:59:58.399Z,7.33
2023-03-27T10:00:58.600Z,7.50
2023-03-27T10:01:58.315Z,7.32
2023-03-27T10:02:58.363Z,7.15
2023-03-27T10:03:58.316Z,7.10
2023-03-27T10:04:58.206Z,7.15
2023-03-27T10:05:58.174Z,6.87
2023-03-27T10:06:58.140Z,6.70
2023-03-27T10:07:58.098Z,6.64
2023-03-27T10:08:58.120Z,6.51
2023-03-27T10:09:58.036Z,6.59
2023-03-27T10:10:58.192Z,6.48
2023-03-27T10:11:57.972Z,6.41
2023-03-27T10:12:57.931Z,6.42
2023-03-27T10:13:57.895Z,6.52
2023-03-27T10:14:58.086Z,6.46
2023-03-27T10:15:57.825Z,6.48
2023-03-27T10:16:57.826Z,6.63
2023-03-27T10:17:57.826Z,6.70
2023-03-27T10:18:57.716Z,6.85
2023-03-27T10:19:57.672Z,7.15
2023-03-27T10:20:57.824Z,7.17
2023-03-27T10:21:57.619Z,7.06
2023-03-27T10:22:57.573Z,7.15
2023-03-27T10:23:57.539Z,7.07
2023-03-27T10:24:57.531Z,7.25
2023-03-27T10:25:57.466Z,7.35
2023-03-27T10:26:57.501Z,7.61
2023-03-27T10:27:57.400Z,7.72
2023-03-27T10:28:57.366Z,7.94
2023-03-27T10:29:57.323Z,8.08
2023-03-27T10:30:57.414Z,8.12
2023-03-27T10:31:57.296Z,7.97
2023-03-27T10:32:57.330Z,7.94
2023-03-27T10:33:57.197Z,8.06
2023-03-27T10:34:57.160Z,8.09
2023-03-27T10:35:57.160Z,8.13
2023-03-27T10:36:57.076Z,8.16
2023-03-27T10:37:57.068Z,7.73
2023-03-27T10:38:57.127Z,7.63
2023-03-27T10:39:56.975Z,7.61
2023-03-27T10:40:57.162Z,7.60
2023-03-27T10:41:56.918Z,7.23
2023-03-27T10:42:56.886Z,6.92
2023-03-27T10:43:56.841Z,6.64
2023-03-27T10:44:56.869Z,6.52
2023-03-27T10:45:56.794Z,6.52
2023-03-27T10:46:56.774Z,6.54
2023-03-27T10:47:56.911Z,6.52
2023-03-27T10:48:56.665Z,6.62
2023-03-27T10:49:56.636Z,6.63
2023-03-27T10:50:56.787Z,6.59
2023-03-27T10:51:56.556Z,6.52
2023-03-27T10:52:56.527Z,6.62
2023-03-27T10:53:56.571Z,6.52
2023-03-27T10:54:56.460Z,6.66
2023-03-27T10:55:56.649Z,6.82
2023-03-27T10:56:56.460Z,6.82
2023-03-27T10:57:56.348Z,6.79
2023-03-27T10:58:56.310Z,6.85
2023-03-27T10:59:56.404Z,7.00
2023-03-27T11:00:56.428Z,7.07
2023-03-27T11:01:56.252Z,7.11
2023-03-27T11:02:56.240Z,7.06
2023-03-27T11:03:56.198Z,7.23
2023-03-27T11:04:56.100Z,7.48
2023-03-27T11:05:56.064Z,7.67
2023-03-27T11:06:56.037Z,7.75
2023-03-27T11:07:56.008Z,7.75
2023-03-27T11:08:56.051Z,7.73
2023-03-27T11:09:55.918Z,7.82
2023-03-27T11:10:56.099Z,7.82
2023-03-27T11:11:55.846Z,7.98
2023-03-27T11:12:55.821Z,8.09
2023-03-27T11:13:55.776Z,8.15
2023-03-27T11:14:55.796Z,7.83
2023-03-27T11:15:55.725Z,7.75
2023-03-27T11:16:55.702Z,7.48
2023-03-27T11:17:55.700Z,7.10
2023-03-27T11:18:55.615Z,6.93
2023-03-27T11:19:55.569Z,7.02
2023-03-27T11:20:55.759Z,7.20
2023-03-27T11:21:55.492Z,7.24
2023-03-27T11:22:55.501Z,7.53
2023-03-27T11:23:55.467Z,7.45
2023-03-27T11:24:55.399Z,7.48
2023-03-27T11:25:55.350Z,7.50
2023-03-27T11:26:55.425Z,7.58
2023-03-27T11:27:55.284Z,7.85
2023-03-27T11:28:55.256Z,7.93
2023-03-27T11:29:55.240Z,7.82
2023-03-27T11:30:55.515Z,7.93
2023-03-27T11:31:55.207Z,8.09
2023-03-27T11:32:55.224Z,8.23
2023-03-27T11:33:55.086Z,8.23
2023-03-27T11:34:55.057Z,8.46
2023-03-27T11:35:55.061Z,8.67
2023-03-27T11:36:54.979Z,8.56
2023-03-27T11:37:54.988Z,8.37
2023-03-27T11:38:54.909Z,8.44
2023-03-27T11:39:54.910Z,8.64
2023-03-27T11:40:55.028Z,8.49
2023-03-27T11:41:54.802Z,8.05
2023-03-27T11:42:54.770Z,8.10
2023-03-27T11:43:54.806Z,8.01
2023-03-27T11:44:54.706Z,7.72
2023-03-27T11:45:54.691Z,7.61
2023-03-27T11:46:54.633Z,7.63
2023-03-27T11:47:54.703Z,7.73
2023-03-27T11:48:54.563Z,7.54
2023-03-27T11:49:54.537Z,7.35
2023-03-27T11:50:54.700Z,7.14
2023-03-27T11:51:54.468Z,7.11
2023-03-27T11:52:54.484Z,7.13
2023-03-27T11:53:54.404Z,7.05
2023-03-27T11:54:54.364Z,7.02
2023-03-27T11:55:54.321Z,7.10
2023-03-27T11:56:54.472Z,7.25
2023-03-27T11:57:54.307Z,7.43
2023-03-27T11:58:54.225Z,7.42
2023-03-27T11:59:54.189Z,7.35
2023-03-27T12:00:54.527Z,7.36
2023-03-27T12:01:54.147Z,7.57
2023-03-27T12:02:54.125Z,7.72
2023-03-27T12:03:54.250Z,7.66
2023-03-27T12:04:54.009Z,7.54
2023-03-27T12:05:53.981Z,7.72
2023-03-27T12:06:53.964Z,7.75
2023-03-27T12:07:53.909Z,7.72
2023-03-27T12:08:53.875Z,7.93
2023-03-27T12:09:53.884Z,7.94
2023-03-27T12:10:53.802Z,8.08
2023-03-27T12:11:53.766Z,8.31
2023-03-27T12:12:53.741Z,8.44
2023-03-27T12:14:00.896Z,8.34
2023-03-27T12:14:53.667Z,8.44
2023-03-27T12:15:53.689Z,8.48
2023-03-27T12:16:53.607Z,8.36
2023-03-27T12:17:53.593Z,8.16
2023-03-27T12:19:01.960Z,8.09
2023-03-27T12:19:53.490Z,8.12
2023-03-27T12:20:53.898Z,8.27
2023-03-27T12:21:53.486Z,8.10
2023-03-27T12:22:53.390Z,7.94
2023-03-27T12:23:53.344Z,7.82
2023-03-27T12:24:59.424Z,7.85
2023-03-27T12:25:53.286Z,7.94
2023-03-27T12:26:53.254Z,7.90
2023-03-27T12:27:53.626Z,7.76
2023-03-27T12:28:53.296Z,7.67
2023-03-27T12:29:53.213Z,7.66
2023-03-27T12:30:53.121Z,7.63
2023-03-27T12:31:53.224Z,7.66
2023-03-27T12:32:54.839Z,7.69
2023-03-27T12:33:54.090Z,7.60
2023-03-27T12:34:53.003Z,7.47
2023-03-27T12:35:53.197Z,7.15
2023-03-27T12:36:53.116Z,7.02
2023-03-27T12:37:52.870Z,6.87
2023-03-27T12:38:52.858Z,6.84
2023-03-27T12:39:52.944Z,6.75
2023-03-27T12:40:52.762Z,6.60
2023-03-27T12:41:52.719Z,6.45
2023-03-27T12:42:52.721Z,6.38
2023-03-27T12:43:52.662Z,6.33
2023-03-27T12:44:52.631Z,6.39
2023-03-27T12:45:53.704Z,6.30
2023-03-27T12:46:52.615Z,6.36
2023-03-27T12:47:52.543Z,6.52
2023-03-27T12:48:52.492Z,6.67
2023-03-27T12:49:52.489Z,6.84
2023-03-27T12:50:52.410Z,6.92
2023-03-27T12:51:52.413Z,7.00
2023-03-27T12:52:52.354Z,7.11
2023-03-27T12:53:52.324Z,7.28
2023-03-27T12:54:52.271Z,7.47
2023-03-27T12:55:52.232Z,7.57
2023-03-27T12:56:52.294Z,7.88
2023-03-27T12:57:52.395Z,8.15
2023-03-27T12:58:52.128Z,8.30
2023-03-27T12:59:52.088Z,8.46
2023-03-27T13:00:52.065Z,8.61
2023-03-27T13:01:52.982Z,8.67
2023-03-27T13:02:52.236Z,8.63
2023-03-27T13:03:52.261Z,8.81
2023-03-27T13:04:51.932Z,8.66
2023-03-27T13:05:51.884Z,8.71
2023-03-27T13:06:51.854Z,8.85
2023-03-27T13:07:53.501Z,8.87
2023-03-27T13:08:51.783Z,9.00
2023-03-27T13:09:51.806Z,8.84
2023-03-27T13:10:51.711Z,9.02
2023-03-27T13:11:51.676Z,9.00
2023-03-27T13:12:51.689Z,9.16
2023-03-27T13:13:51.608Z,9.22
2023-03-27T13:14:51.746Z,9.23
2023-03-27T13:15:51.642Z,9.16
2023-03-27T13:16:51.514Z,9.03
2023-03-27T13:17:51.786Z,8.89
2023-03-27T13:18:52.240Z,8.71